sensor_id;sensor_type;location;lat;lon;timestamp;pressure;altitude;pressure_sealevel;temperature;humidity
17649;BME280;8943;51.110;-4.158;2023-02-26T00:01:39;101870.56;;;9.20;44.81
17649;BME280;8943;51.110;-4.158;2023-02-26T00:04:09;101871.59;;;9.18;44.96
17649;BME280;8943;51.110;-4.158;2023-02-26T00:06:39;101862.91;;;9.14;44.69
17649;BME280;8943;51.110;-4.158;2023-02-26T00:09:25;101864.00;;;9.10;45.13
17649;BME280;8943;51.110;-4.158;2023-02-26T00:11:54;101866.09;;;9.03;44.95
17649;BME280;8943;51.110;-4.158;2023-02-26T00:14:23;101875.78;;;9.05;45.14
17649;BME280;8943;51.110;-4.158;2023-02-26T00:16:56;101877.81;;;8.99;45.29
17649;BME280;8943;51.110;-4.158;2023-02-26T00:19:34;101884.97;;;8.97;45.25
17649;BME280;8943;51.110;-4.158;2023-02-26T00:22:03;101884.13;;;8.97;45.51
17649;BME280;8943;51.110;-4.158;2023-02-26T00:24:34;101887.63;;;8.97;45.22
17649;BME280;8943;51.110;-4.158;2023-02-26T00:27:03;101885.06;;;8.96;45.30
17649;BME280;8943;51.110;-4.158;2023-02-26T00:29:32;101891.25;;;8.96;45.23
17649;BME280;8943;51.110;-4.158;2023-02-26T00:32:00;101892.03;;;8.98;45.19
17649;BME280;8943;51.110;-4.158;2023-02-26T00:34:29;101887.59;;;8.99;45.50
17649;BME280;8943;51.110;-4.158;2023-02-26T00:37:15;101887.59;;;8.99;45.54
17649;BME280;8943;51.110;-4.158;2023-02-26T00:39:52;101892.03;;;8.98;45.26
17649;BME280;8943;51.110;-4.158;2023-02-26T00:42:22;101899.22;;;8.96;45.60
17649;BME280;8943;51.110;-4.158;2023-02-26T00:44:51;101903.53;;;8.99;45.55
17649;BME280;8943;51.110;-4.158;2023-02-26T00:47:26;101908.91;;;8.97;45.62
17649;BME280;8943;51.110;-4.158;2023-02-26T00:50:04;101904.63;;;8.95;45.46
17649;BME280;8943;51.110;-4.158;2023-02-26T00:52:39;101902.09;;;8.92;45.69
17649;BME280;8943;51.110;-4.158;2023-02-26T00:55:12;101903.13;;;8.89;45.55
17649;BME280;8943;51.110;-4.158;2023-02-26T00:57:40;101902.31;;;8.87;45.65
17649;BME280;8943;51.110;-4.158;2023-02-26T01:00:09;101898.00;;;8.85;45.67
17649;BME280;8943;51.110;-4.158;2023-02-26T01:02:38;101904.31;;;8.82;45.59
17649;BME280;8943;51.110;-4.158;2023-02-26T01:05:08;101910.56;;;8.81;45.68
17649;BME280;8943;51.110;-4.158;2023-02-26T01:07:39;101913.31;;;8.80;45.65
17649;BME280;8943;51.110;-4.158;2023-02-26T01:10:10;101908.00;;;8.80;46.10
17649;BME280;8943;51.110;-4.158;2023-02-26T01:12:40;101917.78;;;8.79;46.00
17649;BME280;8943;51.110;-4.158;2023-02-26T01:15:09;101910.66;;;8.80;46.07
17649;BME280;8943;51.110;-4.158;2023-02-26T01:17:43;101916.03;;;8.78;45.95
17649;BME280;8943;51.110;-4.158;2023-02-26T01:20:16;101909.84;;;8.77;45.94
17649;BME280;8943;51.110;-4.158;2023-02-26T01:22:49;101907.28;;;8.76;46.07
17649;BME280;8943;51.110;-4.158;2023-02-26T01:25:23;101899.38;;;8.74;45.98
17649;BME280;8943;51.110;-4.158;2023-02-26T01:27:54;101906.41;;;8.75;45.94
17649;BME280;8943;51.110;-4.158;2023-02-26T01:30:24;101906.50;;;8.74;46.11
17649;BME280;8943;51.110;-4.158;2023-02-26T01:32:57;101904.84;;;8.71;45.92
17649;BME280;8943;51.110;-4.158;2023-02-26T01:35:41;101904.97;;;8.68;46.48
17649;BME280;8943;51.110;-4.158;2023-02-26T01:38:17;101917.47;;;8.66;46.14
17649;BME280;8943;51.110;-4.158;2023-02-26T01:41:09;101915.75;;;8.65;46.05
17649;BME280;8943;51.110;-4.158;2023-02-26T01:43:46;101923.81;;;8.64;46.24
17649;BME280;8943;51.110;-4.158;2023-02-26T01:46:21;101929.13;;;8.64;46.21
17649;BME280;8943;51.110;-4.158;2023-02-26T01:48:55;101933.53;;;8.63;46.29
17649;BME280;8943;51.110;-4.158;2023-02-26T01:51:43;101927.38;;;8.63;46.26
17649;BME280;8943;51.110;-4.158;2023-02-26T01:54:12;101930.09;;;8.61;46.28
17649;BME280;8943;51.110;-4.158;2023-02-26T01:56:42;101943.38;;;8.61;46.27
17649;BME280;8943;51.110;-4.158;2023-02-26T01:59:14;101936.41;;;8.59;46.73
17649;BME280;8943;51.110;-4.158;2023-02-26T02:01:43;101941.66;;;8.60;46.53
17649;BME280;8943;51.110;-4.158;2023-02-26T02:04:13;101947.03;;;8.59;46.88
17649;BME280;8943;51.110;-4.158;2023-02-26T02:06:42;101942.53;;;8.61;46.62
17649;BME280;8943;51.110;-4.158;2023-02-26T02:09:11;101938.06;;;8.61;46.77
17649;BME280;8943;51.110;-4.158;2023-02-26T02:11:50;101943.31;;;8.63;47.01
17649;BME280;8943;51.110;-4.158;2023-02-26T02:14:30;101940.59;;;8.64;46.85
17649;BME280;8943;51.110;-4.158;2023-02-26T02:17:08;101939.66;;;8.65;47.06
17649;BME280;8943;51.110;-4.158;2023-02-26T02:19:54;101939.75;;;8.64;46.97
17649;BME280;8943;51.110;-4.158;2023-02-26T02:22:47;101935.28;;;8.64;46.87
17649;BME280;8943;51.110;-4.158;2023-02-26T02:25:53;101934.44;;;8.64;46.85
17649;BME280;8943;51.110;-4.158;2023-02-26T02:28:34;101948.63;;;8.63;46.87
17649;BME280;8943;51.110;-4.158;2023-02-26T02:31:07;101938.00;;;8.63;47.16
17649;BME280;8943;51.110;-4.158;2023-02-26T02:33:41;101933.53;;;8.63;46.57
17649;BME280;8943;51.110;-4.158;2023-02-26T02:36:15;101922.22;;;8.60;47.12
17649;BME280;8943;51.110;-4.158;2023-02-26T02:38:48;101932.84;;;8.60;47.14
17649;BME280;8943;51.110;-4.158;2023-02-26T02:41:20;101935.56;;;8.58;47.25
17649;BME280;8943;51.110;-4.158;2023-02-26T02:43:50;101933.69;;;8.60;46.76
17649;BME280;8943;51.110;-4.158;2023-02-26T02:46:23;101940.81;;;8.60;47.09
17649;BME280;8943;51.110;-4.158;2023-02-26T02:48:59;101935.50;;;8.60;47.16
17649;BME280;8943;51.110;-4.158;2023-02-26T02:51:30;101938.22;;;8.58;47.25
17649;BME280;8943;51.110;-4.158;2023-02-26T02:54:03;101935.63;;;8.57;46.94
17649;BME280;8943;51.110;-4.158;2023-02-26T02:56:35;101936.56;;;8.56;47.19
17649;BME280;8943;51.110;-4.158;2023-02-26T02:59:10;101934.84;;;8.55;47.13
17649;BME280;8943;51.110;-4.158;2023-02-26T03:01:43;101939.31;;;8.54;47.37
17649;BME280;8943;51.110;-4.158;2023-02-26T03:04:14;101937.44;;;8.56;47.33
17649;BME280;8943;51.110;-4.158;2023-02-26T03:06:43;101934.00;;;8.54;47.23
17649;BME280;8943;51.110;-4.158;2023-02-26T03:09:12;101935.75;;;8.54;47.62
17649;BME280;8943;51.110;-4.158;2023-02-26T03:11:40;101938.41;;;8.54;47.55
17649;BME280;8943;51.110;-4.158;2023-02-26T03:14:09;101939.31;;;8.54;47.51
17649;BME280;8943;51.110;-4.158;2023-02-26T03:16:51;101942.94;;;8.51;47.53
17649;BME280;8943;51.110;-4.158;2023-02-26T03:19:28;101941.16;;;8.52;47.26
17649;BME280;8943;51.110;-4.158;2023-02-26T03:22:04;101937.63;;;8.51;47.35
17649;BME280;8943;51.110;-4.158;2023-02-26T03:24:36;101927.94;;;8.50;47.40
17649;BME280;8943;51.110;-4.158;2023-02-26T03:27:14;101928.81;;;8.51;47.53
17649;BME280;8943;51.110;-4.158;2023-02-26T03:29:47;101933.25;;;8.50;47.81
17649;BME280;8943;51.110;-4.158;2023-02-26T03:32:23;101951.00;;;8.50;47.62
17649;BME280;8943;51.110;-4.158;2023-02-26T03:34:55;101958.03;;;8.51;47.75
17649;BME280;8943;51.110;-4.158;2023-02-26T03:37:27;101958.09;;;8.49;47.70
17649;BME280;8943;51.110;-4.158;2023-02-26T03:40:02;101963.41;;;8.49;47.64
17649;BME280;8943;51.110;-4.158;2023-02-26T03:42:35;101956.34;;;8.48;47.52
17649;BME280;8943;51.110;-4.158;2023-02-26T03:45:07;101953.66;;;8.50;47.50
17649;BME280;8943;51.110;-4.158;2023-02-26T03:47:39;101964.41;;;8.47;47.57
17649;BME280;8943;51.110;-4.158;2023-02-26T03:50:12;101970.56;;;8.47;47.57
17649;BME280;8943;51.110;-4.158;2023-02-26T03:52:44;101967.91;;;8.47;47.50
17649;BME280;8943;51.110;-4.158;2023-02-26T03:55:16;101971.59;;;8.45;47.53
17649;BME280;8943;51.110;-4.158;2023-02-26T03:57:46;101974.28;;;8.43;47.88
17649;BME280;8943;51.110;-4.158;2023-02-26T04:00:16;101972.44;;;8.45;47.81
17649;BME280;8943;51.110;-4.158;2023-02-26T04:02:55;101979.59;;;8.43;47.81
17649;BME280;8943;51.110;-4.158;2023-02-26T04:05:26;101984.78;;;8.46;47.89
17649;BME280;8943;51.110;-4.158;2023-02-26T04:07:56;101993.53;;;8.48;47.67
17649;BME280;8943;51.110;-4.158;2023-02-26T04:10:29;101993.53;;;8.48;47.77
17649;BME280;8943;51.110;-4.158;2023-02-26T04:13:00;101998.00;;;8.48;47.77
17649;BME280;8943;51.110;-4.158;2023-02-26T04:15:29;101998.16;;;8.45;47.78
17649;BME280;8943;51.110;-4.158;2023-02-26T04:17:58;101998.19;;;8.43;47.93
17649;BME280;8943;51.110;-4.158;2023-02-26T04:20:26;101998.19;;;8.43;47.84
17649;BME280;8943;51.110;-4.158;2023-02-26T04:22:54;101998.28;;;8.42;47.84
17649;BME280;8943;51.110;-4.158;2023-02-26T04:25:24;101996.47;;;8.42;48.07
17649;BME280;8943;51.110;-4.158;2023-02-26T04:27:52;102004.38;;;8.44;48.11
17649;BME280;8943;51.110;-4.158;2023-02-26T04:30:21;102013.22;;;8.44;48.14
17649;BME280;8943;51.110;-4.158;2023-02-26T04:32:49;102015.81;;;8.46;48.16
17649;BME280;8943;51.110;-4.158;2023-02-26T04:35:18;102016.66;;;8.46;48.15
17649;BME280;8943;51.110;-4.158;2023-02-26T04:37:46;102023.69;;;8.47;48.25
17649;BME280;8943;51.110;-4.158;2023-02-26T04:40:15;102020.09;;;8.48;48.26
17649;BME280;8943;51.110;-4.158;2023-02-26T04:42:43;102025.41;;;8.48;48.20
17649;BME280;8943;51.110;-4.158;2023-02-26T04:45:13;102028.16;;;8.47;47.93
17649;BME280;8943;51.110;-4.158;2023-02-26T04:47:41;102024.72;;;8.45;48.06
17649;BME280;8943;51.110;-4.158;2023-02-26T04:50:10;102043.50;;;8.40;47.95
17649;BME280;8943;51.110;-4.158;2023-02-26T04:52:40;102031.13;;;8.39;48.51
17649;BME280;8943;51.110;-4.158;2023-02-26T04:55:08;102032.91;;;8.39;48.32
17649;BME280;8943;51.110;-4.158;2023-02-26T04:57:36;102031.13;;;8.39;48.04
17649;BME280;8943;51.110;-4.158;2023-02-26T05:00:05;102028.63;;;8.36;48.51
17649;BME280;8943;51.110;-4.158;2023-02-26T05:02:34;102033.78;;;8.39;48.07
17649;BME280;8943;51.110;-4.158;2023-02-26T05:05:03;102040.88;;;8.39;48.39
17649;BME280;8943;51.110;-4.158;2023-02-26T05:07:31;102045.34;;;8.38;48.31
17649;BME280;8943;51.110;-4.158;2023-02-26T05:10:00;102049.78;;;8.38;48.31
17649;BME280;8943;51.110;-4.158;2023-02-26T05:12:28;102044.41;;;8.39;48.35
17649;BME280;8943;51.110;-4.158;2023-02-26T05:14:56;102048.84;;;8.39;48.34
17649;BME280;8943;51.110;-4.158;2023-02-26T05:17:24;102050.66;;;8.38;48.37
17649;BME280;8943;51.110;-4.158;2023-02-26T05:19:53;102052.53;;;8.36;48.58
17649;BME280;8943;51.110;-4.158;2023-02-26T05:22:21;102052.53;;;8.36;48.63
17649;BME280;8943;51.110;-4.158;2023-02-26T05:24:49;102053.47;;;8.34;48.48
17649;BME280;8943;51.110;-4.158;2023-02-26T05:27:18;102058.75;;;8.35;48.51
17649;BME280;8943;51.110;-4.158;2023-02-26T05:29:46;102049.16;;;8.31;48.44
17649;BME280;8943;51.110;-4.158;2023-02-26T05:32:14;102058.06;;;8.30;48.33
17649;BME280;8943;51.110;-4.158;2023-02-26T05:34:42;102060.84;;;8.27;48.42
17649;BME280;8943;51.110;-4.158;2023-02-26T05:37:10;102063.50;;;8.27;48.37
17649;BME280;8943;51.110;-4.158;2023-02-26T05:39:39;102066.28;;;8.24;48.59
17649;BME280;8943;51.110;-4.158;2023-02-26T05:42:08;102079.56;;;8.24;48.73
17649;BME280;8943;51.110;-4.158;2023-02-26T05:44:37;102080.56;;;8.21;49.10
17649;BME280;8943;51.110;-4.158;2023-02-26T05:47:05;102085.88;;;8.21;48.57
17649;BME280;8943;51.110;-4.158;2023-02-26T05:49:33;102078.75;;;8.22;48.88
17649;BME280;8943;51.110;-4.158;2023-02-26T05:52:02;102081.34;;;8.23;48.71
17649;BME280;8943;51.110;-4.158;2023-02-26T05:54:30;102080.41;;;8.24;48.80
17649;BME280;8943;51.110;-4.158;2023-02-26T05:56:58;102083.06;;;8.24;48.73
17649;BME280;8943;51.110;-4.158;2023-02-26T05:59:26;102087.41;;;8.27;48.82
17649;BME280;8943;51.110;-4.158;2023-02-26T06:01:55;102095.38;;;8.27;48.88
17649;BME280;8943;51.110;-4.158;2023-02-26T06:04:24;102094.44;;;8.28;48.88
17649;BME280;8943;51.110;-4.158;2023-02-26T06:06:52;102101.53;;;8.27;48.89
17649;BME280;8943;51.110;-4.158;2023-02-26T06:09:20;102107.84;;;8.25;48.76
17649;BME280;8943;51.110;-4.158;2023-02-26T06:11:48;102108.72;;;8.25;48.44
17649;BME280;8943;51.110;-4.158;2023-02-26T06:14:16;102112.16;;;8.27;48.74
17649;BME280;8943;51.110;-4.158;2023-02-26T06:16:44;102115.63;;;8.30;49.06
17649;BME280;8943;51.110;-4.158;2023-02-26T06:19:13;102113.84;;;8.30;48.83
17649;BME280;8943;51.110;-4.158;2023-02-26T06:21:42;102115.47;;;8.33;49.11
17649;BME280;8943;51.110;-4.158;2023-02-26T06:24:10;102112.75;;;8.34;49.02
17649;BME280;8943;51.110;-4.158;2023-02-26T06:26:38;102127.66;;;8.38;49.11
17649;BME280;8943;51.110;-4.158;2023-02-26T06:29:07;102133.81;;;8.40;48.79
17649;BME280;8943;51.110;-4.158;2023-02-26T06:31:35;102132.75;;;8.44;49.12
17649;BME280;8943;51.110;-4.158;2023-02-26T06:34:03;102138.06;;;8.44;48.92
17649;BME280;8943;51.110;-4.158;2023-02-26T06:36:33;102137.13;;;8.45;48.79
17649;BME280;8943;51.110;-4.158;2023-02-26T06:39:01;102140.72;;;8.44;48.76
17649;BME280;8943;51.110;-4.158;2023-02-26T06:41:29;102144.34;;;8.42;48.72
17649;BME280;8943;51.110;-4.158;2023-02-26T06:43:57;102145.31;;;8.39;49.03
17649;BME280;8943;51.110;-4.158;2023-02-26T06:46:25;102148.22;;;8.33;48.88
17649;BME280;8943;51.110;-4.158;2023-02-26T06:48:53;102149.94;;;8.34;48.74
17649;BME280;8943;51.110;-4.158;2023-02-26T06:51:22;102153.53;;;8.33;48.78
17649;BME280;8943;51.110;-4.158;2023-02-26T06:53:52;102152.66;;;8.33;48.58
17649;BME280;8943;51.110;-4.158;2023-02-26T06:56:23;102159.69;;;8.34;48.62
17649;BME280;8943;51.110;-4.158;2023-02-26T06:58:52;102155.38;;;8.31;48.73
17649;BME280;8943;51.110;-4.158;2023-02-26T07:01:20;102154.53;;;8.31;48.65
17649;BME280;8943;51.110;-4.158;2023-02-26T07:03:48;102155.47;;;8.30;48.66
17649;BME280;8943;51.110;-4.158;2023-02-26T07:06:16;102165.19;;;8.29;48.99
17649;BME280;8943;51.110;-4.158;2023-02-26T07:08:55;102161.75;;;8.27;48.74
17649;BME280;8943;51.110;-4.158;2023-02-26T07:11:23;102169.72;;;8.27;48.71
17649;BME280;8943;51.110;-4.158;2023-02-26T07:13:51;102171.59;;;8.25;48.66
17649;BME280;8943;51.110;-4.158;2023-02-26T07:16:20;102179.47;;;8.26;48.93
17649;BME280;8943;51.110;-4.158;2023-02-26T07:18:49;102183.97;;;8.24;48.77
17649;BME280;8943;51.110;-4.158;2023-02-26T07:21:17;102183.19;;;8.22;48.96
17649;BME280;8943;51.110;-4.158;2023-02-26T07:23:45;102187.75;;;8.19;48.88
17649;BME280;8943;51.110;-4.158;2023-02-26T07:26:14;102186.00;;;8.18;48.77
17649;BME280;8943;51.110;-4.158;2023-02-26T07:28:43;102190.41;;;8.19;48.90
17649;BME280;8943;51.110;-4.158;2023-02-26T07:31:11;102192.19;;;8.18;48.76
17649;BME280;8943;51.110;-4.158;2023-02-26T07:33:39;102193.19;;;8.16;49.09
17649;BME280;8943;51.110;-4.158;2023-02-26T07:36:07;102193.19;;;8.16;48.97
17649;BME280;8943;51.110;-4.158;2023-02-26T07:38:35;102200.22;;;8.17;49.10
17649;BME280;8943;51.110;-4.158;2023-02-26T07:41:04;102208.19;;;8.17;48.97
17649;BME280;8943;51.110;-4.158;2023-02-26T07:43:34;102203.75;;;8.17;49.06
17649;BME280;8943;51.110;-4.158;2023-02-26T07:46:02;102206.28;;;8.20;49.28
17649;BME280;8943;51.110;-4.158;2023-02-26T07:48:30;102220.34;;;8.22;49.13
17649;BME280;8943;51.110;-4.158;2023-02-26T07:50:59;102212.22;;;8.27;49.01
17649;BME280;8943;51.110;-4.158;2023-02-26T07:53:27;102215.63;;;8.31;49.07
17649;BME280;8943;51.110;-4.158;2023-02-26T07:55:55;102218.09;;;8.35;48.69
17649;BME280;8943;51.110;-4.158;2023-02-26T07:58:23;102217.97;;;8.38;49.02
17649;BME280;8943;51.110;-4.158;2023-02-26T08:00:58;102217.94;;;8.40;49.26
17649;BME280;8943;51.110;-4.158;2023-02-26T08:03:30;102229.28;;;8.43;49.19
17649;BME280;8943;51.110;-4.158;2023-02-26T08:05:59;102224.78;;;8.45;49.02
17649;BME280;8943;51.110;-4.158;2023-02-26T08:08:29;102237.03;;;8.49;49.01
17649;BME280;8943;51.110;-4.158;2023-02-26T08:11:00;102241.25;;;8.54;49.20
17649;BME280;8943;51.110;-4.158;2023-02-26T08:13:29;102249.91;;;8.59;49.14
17649;BME280;8943;51.110;-4.158;2023-02-26T08:15:58;102252.44;;;8.62;49.22
17649;BME280;8943;51.110;-4.158;2023-02-26T08:18:26;102264.56;;;8.69;49.27
17649;BME280;8943;51.110;-4.158;2023-02-26T08:20:55;102258.19;;;8.73;49.65
17649;BME280;8943;51.110;-4.158;2023-02-26T08:23:23;102265.72;;;8.84;49.41
17649;BME280;8943;51.110;-4.158;2023-02-26T08:25:58;102278.63;;;8.93;49.33
17649;BME280;8943;51.110;-4.158;2023-02-26T08:28:27;102271.28;;;8.99;49.50
17649;BME280;8943;51.110;-4.158;2023-02-26T08:30:55;102268.06;;;9.12;49.75
17649;BME280;8943;51.110;-4.158;2023-02-26T08:33:26;102272.03;;;9.23;49.44
17649;BME280;8943;51.110;-4.158;2023-02-26T08:35:54;102282.19;;;9.34;49.68
17649;BME280;8943;51.110;-4.158;2023-02-26T08:38:28;102277.25;;;9.45;49.44
17649;BME280;8943;51.110;-4.158;2023-02-26T08:40:56;102276.78;;;9.56;49.59
17649;BME280;8943;51.110;-4.158;2023-02-26T08:43:25;102287.88;;;9.66;49.29
17649;BME280;8943;51.110;-4.158;2023-02-26T08:45:54;102292.88;;;9.73;49.49
17649;BME280;8943;51.110;-4.158;2023-02-26T08:48:24;102293.25;;;9.85;49.39
17649;BME280;8943;51.110;-4.158;2023-02-26T08:50:53;102300.69;;;9.97;49.36
17649;BME280;8943;51.110;-4.158;2023-02-26T08:53:21;102298.19;;;10.13;49.52
17649;BME280;8943;51.110;-4.158;2023-02-26T08:55:51;102296.72;;;10.26;49.50
17649;BME280;8943;51.110;-4.158;2023-02-26T08:58:19;102293.19;;;10.44;49.58
17649;BME280;8943;51.110;-4.158;2023-02-26T09:00:48;102295.16;;;10.58;49.19
17649;BME280;8943;51.110;-4.158;2023-02-26T09:03:16;102302.66;;;10.69;49.11
17649;BME280;8943;51.110;-4.158;2023-02-26T09:05:46;102300.63;;;10.74;48.85
17649;BME280;8943;51.110;-4.158;2023-02-26T09:08:14;102303.09;;;10.78;48.50
17649;BME280;8943;51.110;-4.158;2023-02-26T09:10:42;102309.28;;;10.79;48.48
17649;BME280;8943;51.110;-4.158;2023-02-26T09:13:10;102316.63;;;10.74;48.20
17649;BME280;8943;51.110;-4.158;2023-02-26T09:15:39;102321.88;;;10.75;48.20
17649;BME280;8943;51.110;-4.158;2023-02-26T09:18:07;102327.13;;;10.77;47.99
17649;BME280;8943;51.110;-4.158;2023-02-26T09:20:41;102326.81;;;10.83;48.07
17649;BME280;8943;51.110;-4.158;2023-02-26T09:23:11;102333.38;;;10.95;48.29
17649;BME280;8943;51.110;-4.158;2023-02-26T09:25:39;102341.56;;;11.09;48.06
17649;BME280;8943;51.110;-4.158;2023-02-26T09:28:07;102350.75;;;11.21;48.10
17649;BME280;8943;51.110;-4.158;2023-02-26T09:30:36;102355.53;;;11.31;47.78
17649;BME280;8943;51.110;-4.158;2023-02-26T09:33:04;102338.06;;;11.43;47.75
17649;BME280;8943;51.110;-4.158;2023-02-26T09:35:32;102352.47;;;11.56;47.81
17649;BME280;8943;51.110;-4.158;2023-02-26T09:38:00;102356.25;;;11.70;47.22
17649;BME280;8943;51.110;-4.158;2023-02-26T09:40:39;102352.97;;;11.82;46.96
17649;BME280;8943;51.110;-4.158;2023-02-26T09:43:29;102353.41;;;11.90;46.73
17649;BME280;8943;51.110;-4.158;2023-02-26T09:46:07;102351.69;;;11.89;46.63
17649;BME280;8943;51.110;-4.158;2023-02-26T09:48:38;102357.22;;;11.86;46.27
17649;BME280;8943;51.110;-4.158;2023-02-26T09:51:10;102360.16;;;11.80;46.19
17649;BME280;8943;51.110;-4.158;2023-02-26T09:53:42;102363.25;;;11.72;45.95
17649;BME280;8943;51.110;-4.158;2023-02-26T09:56:15;102372.28;;;11.70;45.92
17649;BME280;8943;51.110;-4.158;2023-02-26T09:58:44;102366.06;;;11.69;46.20
17649;BME280;8943;51.110;-4.158;2023-02-26T10:01:18;102364.19;;;11.71;46.00
17649;BME280;8943;51.110;-4.158;2023-02-26T10:03:56;102358.69;;;11.74;45.94
17649;BME280;8943;51.110;-4.158;2023-02-26T10:06:29;102352.16;;;11.80;46.14
17649;BME280;8943;51.110;-4.158;2023-02-26T10:09:12;102366.72;;;11.92;45.94
17649;BME280;8943;51.110;-4.158;2023-02-26T10:11:50;102368.00;;;12.00;45.44
17649;BME280;8943;51.110;-4.158;2023-02-26T10:14:23;102357.97;;;12.05;45.91
17649;BME280;8943;51.110;-4.158;2023-02-26T10:16:57;102351.34;;;12.13;45.24
17649;BME280;8943;51.110;-4.158;2023-02-26T10:19:28;102364.56;;;12.16;45.31
17649;BME280;8943;51.110;-4.158;2023-02-26T10:22:02;102370.25;;;12.25;45.28
17649;BME280;8943;51.110;-4.158;2023-02-26T10:24:38;102376.75;;;12.37;45.18
17649;BME280;8943;51.110;-4.158;2023-02-26T10:27:13;102376.59;;;12.56;45.56
17649;BME280;8943;51.110;-4.158;2023-02-26T10:29:45;102385.13;;;12.78;45.39
17649;BME280;8943;51.110;-4.158;2023-02-26T10:32:24;102381.69;;;12.92;44.87
17649;BME280;8943;51.110;-4.158;2023-02-26T10:34:55;102389.63;;;13.09;45.18
17649;BME280;8943;51.110;-4.158;2023-02-26T10:37:35;102379.78;;;13.26;44.82
17649;BME280;8943;51.110;-4.158;2023-02-26T10:40:12;102383.91;;;13.31;44.37
17649;BME280;8943;51.110;-4.158;2023-02-26T10:42:46;102395.31;;;13.35;43.83
17649;BME280;8943;51.110;-4.158;2023-02-26T10:45:27;102394.44;;;13.34;43.44
17649;BME280;8943;51.110;-4.158;2023-02-26T10:48:08;102395.84;;;13.26;42.91
17649;BME280;8943;51.110;-4.158;2023-02-26T10:50:45;102402.91;;;13.11;42.94
17649;BME280;8943;51.110;-4.158;2023-02-26T10:53:15;102404.75;;;12.95;42.59
17649;BME280;8943;51.110;-4.158;2023-02-26T10:55:46;102404.56;;;12.82;42.79
17649;BME280;8943;51.110;-4.158;2023-02-26T10:58:23;102397.38;;;12.67;42.67
17649;BME280;8943;51.110;-4.158;2023-02-26T11:00:53;102404.19;;;12.56;43.20
17649;BME280;8943;51.110;-4.158;2023-02-26T11:03:28;102400.81;;;12.53;43.22
17649;BME280;8943;51.110;-4.158;2023-02-26T11:05:58;102386.25;;;12.58;43.40
17649;BME280;8943;51.110;-4.158;2023-02-26T11:08:31;102396.13;;;12.74;43.71
17649;BME280;8943;51.110;-4.158;2023-02-26T11:11:01;102404.53;;;12.98;43.62
17649;BME280;8943;51.110;-4.158;2023-02-26T11:13:34;102398.84;;;13.20;43.58
17649;BME280;8943;51.110;-4.158;2023-02-26T11:16:08;102395.13;;;13.38;43.37
17649;BME280;8943;51.110;-4.158;2023-02-26T11:18:39;102407.25;;;13.59;43.42
17649;BME280;8943;51.110;-4.158;2023-02-26T11:21:16;102408.94;;;13.76;42.79
17649;BME280;8943;51.110;-4.158;2023-02-26T11:23:45;102412.84;;;13.85;42.21
17649;BME280;8943;51.110;-4.158;2023-02-26T11:26:16;102414.59;;;13.86;42.26
17649;BME280;8943;51.110;-4.158;2023-02-26T11:28:49;102419.28;;;13.82;41.50
17649;BME280;8943;51.110;-4.158;2023-02-26T11:31:19;102410.34;;;13.68;41.25
17649;BME280;8943;51.110;-4.158;2023-02-26T11:33:49;102422.34;;;13.60;41.42
17649;BME280;8943;51.110;-4.158;2023-02-26T11:36:21;102425.50;;;13.53;41.34
17649;BME280;8943;51.110;-4.158;2023-02-26T11:38:54;102418.59;;;13.49;41.54
17649;BME280;8943;51.110;-4.158;2023-02-26T11:41:22;102414.00;;;13.51;41.64
17649;BME280;8943;51.110;-4.158;2023-02-26T11:43:59;102411.47;;;13.63;41.23
17649;BME280;8943;51.110;-4.158;2023-02-26T11:46:28;102420.69;;;13.74;41.24
17649;BME280;8943;51.110;-4.158;2023-02-26T11:48:57;102423.03;;;13.94;41.03
17649;BME280;8943;51.110;-4.158;2023-02-26T11:51:28;102426.53;;;14.10;40.94
17649;BME280;8943;51.110;-4.158;2023-02-26T11:53:58;102423.06;;;14.23;40.68
17649;BME280;8943;51.110;-4.158;2023-02-26T11:56:30;102424.31;;;14.31;40.23
17649;BME280;8943;51.110;-4.158;2023-02-26T11:59:06;102425.06;;;14.33;39.95
17649;BME280;8943;51.110;-4.158;2023-02-26T12:01:36;102438.69;;;14.30;39.85
17649;BME280;8943;51.110;-4.158;2023-02-26T12:04:08;102435.13;;;14.30;39.60
17649;BME280;8943;51.110;-4.158;2023-02-26T12:06:38;102435.44;;;14.25;39.63
17649;BME280;8943;51.110;-4.158;2023-02-26T12:09:08;102436.47;;;14.23;39.60
17649;BME280;8943;51.110;-4.158;2023-02-26T12:11:56;102438.56;;;14.17;39.08
17649;BME280;8943;51.110;-4.158;2023-02-26T12:14:48;102433.59;;;14.11;38.82
17649;BME280;8943;51.110;-4.158;2023-02-26T12:17:42;102435.69;;;14.06;38.73
17649;BME280;8943;51.110;-4.158;2023-02-26T12:20:20;102436.94;;;14.01;38.98
17649;BME280;8943;51.110;-4.158;2023-02-26T12:23:05;102433.38;;;14.00;38.49
17649;BME280;8943;51.110;-4.158;2023-02-26T12:26:15;102441.69;;;13.96;38.40
17649;BME280;8943;51.110;-4.158;2023-02-26T12:29:06;102450.19;;;13.88;38.42
17649;BME280;8943;51.110;-4.158;2023-02-26T12:35:05;102451.16;;;13.87;38.45
17649;BME280;8943;51.110;-4.158;2023-02-26T12:37:47;102445.69;;;13.88;38.59
17649;BME280;8943;51.110;-4.158;2023-02-26T12:43:36;102430.44;;;14.33;38.67
17649;BME280;8943;51.110;-4.158;2023-02-26T12:46:17;102438.25;;;14.52;38.70
17649;BME280;8943;51.110;-4.158;2023-02-26T12:49:07;102440.72;;;14.70;38.20
17649;BME280;8943;51.110;-4.158;2023-02-26T12:51:51;102443.97;;;14.75;37.87
17649;BME280;8943;51.110;-4.158;2023-02-26T12:54:33;102438.50;;;14.90;37.80
17649;BME280;8943;51.110;-4.158;2023-02-26T12:57:24;102445.78;;;14.88;37.43
17649;BME280;8943;51.110;-4.158;2023-02-26T13:00:12;102445.69;;;14.76;37.26
17649;BME280;8943;51.110;-4.158;2023-02-26T13:03:11;102438.34;;;14.65;37.40
17649;BME280;8943;51.110;-4.158;2023-02-26T13:05:56;102440.63;;;14.57;37.51
17649;BME280;8943;51.110;-4.158;2023-02-26T13:08:33;102434.59;;;14.53;37.47
17649;BME280;8943;51.110;-4.158;2023-02-26T13:11:15;102436.53;;;14.51;37.48
17649;BME280;8943;51.110;-4.158;2023-02-26T13:14:03;102434.69;;;14.52;37.45
17649;BME280;8943;51.110;-4.158;2023-02-26T13:16:43;102445.59;;;14.49;37.61
17649;BME280;8943;51.110;-4.158;2023-02-26T13:19:25;102439.91;;;14.39;36.99
17649;BME280;8943;51.110;-4.158;2023-02-26T13:22:01;102438.88;;;14.41;37.48
17649;BME280;8943;51.110;-4.158;2023-02-26T13:24:34;102432.97;;;14.51;37.33
17649;BME280;8943;51.110;-4.158;2023-02-26T13:27:06;102433.91;;;14.64;36.80
17649;BME280;8943;51.110;-4.158;2023-02-26T13:29:38;102446.38;;;14.79;36.90
17649;BME280;8943;51.110;-4.158;2023-02-26T13:32:13;102447.56;;;15.02;37.08